Time;durP1;ratioP1;P1;durP2;ratioP2;P2;SDS_P1;SDS_P2;PMS_P1;PMS_P2;Temp;Humidity;BMP_temperature;BMP_pressure;BME280_temperature;BME280_humidity;BME280_pressure;Samples;Min_cycle;Max_cycle;Signal;HPM_P1;HPM_P2
2022/01/08 00:01:11;;;;;;;7.88;5.65;;;;;;;4.50;69.85;95201.13;5029291;28;20243;-59
2022/01/08 00:03:39;;;;;;;6.85;5.30;;;;;;;4.60;69.23;95197.06;5028549;28;20255;-60
2022/01/08 00:06:08;;;;;;;6.70;5.10;;;;;;;4.32;69.56;95191.47;5028975;28;20248;-60
2022/01/08 00:08:35;;;;;;;7.35;5.60;;;;;;;4.46;70.46;95203.34;5028527;28;20718;-61
2022/01/08 00:11:02;;;;;;;6.38;5.50;;;;;;;5.03;69.57;95189.34;5028690;28;20211;-61
2022/01/08 00:13:29;;;;;;;7.18;5.55;;;;;;;5.02;68.80;95198.91;5027905;28;20185;-61
2022/01/08 00:15:56;;;;;;;7.32;5.50;;;;;;;4.80;68.18;95195.09;5028272;28;20279;-60
2022/01/08 00:18:24;;;;;;;7.30;5.07;;;;;;;5.39;67.46;95194.56;5028638;28;20201;-60
2022/01/08 00:20:52;;;;;;;8.13;5.75;;;;;;;5.58;66.97;95197.97;5028631;28;20722;-61
2022/01/08 00:23:19;;;;;;;8.63;5.40;;;;;;;4.97;67.76;95190.97;5028603;28;20304;-60
2022/01/08 00:25:45;;;;;;;7.10;5.22;;;;;;;4.69;69.00;95200.22;5028614;28;20241;-59
2022/01/08 00:28:12;;;;;;;6.70;5.20;;;;;;;4.73;68.82;95163.22;5028201;28;20185;-61
2022/01/08 00:30:39;;;;;;;7.22;5.70;;;;;;;4.99;68.19;95191.56;5028576;28;20239;-60
2022/01/08 00:33:06;;;;;;;6.55;5.00;;;;;;;4.99;68.12;95188.97;5028184;28;20201;-61
2022/01/08 00:35:33;;;;;;;7.18;5.25;;;;;;;5.15;67.35;95172.84;5028674;28;20215;-60
2022/01/08 00:38:01;;;;;;;6.85;5.13;;;;;;;5.00;67.85;95163.78;5027924;28;20205;-61
2022/01/08 00:40:29;;;;;;;7.38;4.75;;;;;;;5.22;67.38;95174.56;5028927;28;20303;-60
2022/01/08 00:42:56;;;;;;;5.63;4.20;;;;;;;4.94;67.81;95165.44;5028169;28;20251;-61
2022/01/08 00:45:23;;;;;;;5.90;4.40;;;;;;;5.32;67.69;95167.06;5028145;28;20283;-60
2022/01/08 00:47:50;;;;;;;4.63;3.80;;;;;;;5.35;66.91;95161.44;5027924;28;20205;-60
2022/01/08 00:50:17;;;;;;;6.32;3.90;;;;;;;4.79;68.74;95167.56;5027947;28;20186;-60
2022/01/08 00:52:44;;;;;;;5.78;4.32;;;;;;;4.83;68.61;95168.75;5027890;28;20660;-60
2022/01/08 00:55:12;;;;;;;5.72;4.10;;;;;;;4.86;68.80;95188.28;5028452;28;20190;-60
2022/01/08 00:57:39;;;;;;;5.20;4.22;;;;;;;5.11;68.20;95184.66;5027880;28;20873;-60
2022/01/08 01:00:10;;;;;;;5.03;3.80;;;;;;;4.93;68.43;95173.44;5028588;28;20201;-61
2022/01/08 01:02:37;;;;;;;5.18;4.15;;;;;;;5.11;68.04;95171.66;5027580;28;20189;-60
2022/01/08 01:05:06;;;;;;;4.90;3.85;;;;;;;5.47;66.44;95170.91;5027955;28;20259;-60
2022/01/08 01:07:33;;;;;;;5.30;4.10;;;;;;;5.29;66.99;95172.69;5027815;28;20208;-60
2022/01/08 01:10:00;;;;;;;6.22;4.30;;;;;;;5.55;66.21;95154.19;5028464;28;20192;-61
2022/01/08 01:12:26;;;;;;;4.60;3.70;;;;;;;5.48;66.59;95161.28;5028026;28;20217;-60
2022/01/08 01:15:08;;;;;;;5.22;3.97;;;;;;;5.41;66.51;95161.38;5027429;28;20243;-60
2022/01/08 01:17:35;;;;;;;5.38;3.80;;;;;;;5.24;66.94;95164.75;5027861;28;20200;-59
2022/01/08 01:20:03;;;;;;;5.45;3.70;;;;;;;5.42;66.84;95156.97;5028388;28;20583;-61
2022/01/08 01:22:45;;;;;;;5.40;4.22;;;;;;;5.34;67.01;95149.47;5027659;28;20185;-61
2022/01/08 01:25:17;;;;;;;5.72;4.15;;;;;;;5.11;67.20;95145.69;5027530;28;20217;-60
2022/01/08 01:30:16;;;;;;;6.40;4.22;;;;;;;4.84;67.99;95121.00;5027583;28;20197;-59
2022/01/08 01:41:14;;;;;;;5.80;4.00;;;;;;;5.03;68.56;95137.41;5027974;28;20191;-61
2022/01/08 01:47:01;;;;;;;5.63;3.97;;;;;;;5.14;68.13;95129.69;5026915;28;20221;-61
2022/01/08 01:49:30;;;;;;;6.38;3.97;;;;;;;5.22;67.99;95110.41;5027724;28;20209;-61
2022/01/08 01:51:59;;;;;;;6.03;4.00;;;;;;;5.20;67.81;95124.63;5027707;28;20193;-61
2022/01/08 01:54:30;;;;;;;5.20;3.85;;;;;;;5.21;67.42;95123.63;5027119;28;20228;-61
2022/01/08 01:56:59;;;;;;;5.28;3.90;;;;;;;5.33;67.04;95122.66;5027658;28;20213;-61
2022/01/08 01:59:28;;;;;;;5.38;3.80;;;;;;;5.07;68.01;95128.94;5027321;28;20205;-61
2022/01/08 02:01:55;;;;;;;4.70;3.55;;;;;;;4.98;67.61;95119.06;5030566;28;20201;-60
2022/01/08 02:04:22;;;;;;;4.68;3.47;;;;;;;4.76;68.66;95110.88;5030542;28;20211;-61
2022/01/08 02:06:49;;;;;;;5.30;3.55;;;;;;;4.77;68.96;95117.66;5031134;28;20244;-60
2022/01/08 02:09:17;;;;;;;4.95;3.70;;;;;;;4.74;68.96;95112.91;5030948;28;20199;-60
2022/01/08 02:12:07;;;;;;;4.82;3.83;;;;;;;4.80;69.09;95116.47;5031251;28;20204;-60
2022/01/08 02:14:36;;;;;;;5.10;3.67;;;;;;;4.63;69.24;95118.81;5030625;28;20241;-61
2022/01/08 02:17:08;;;;;;;5.68;3.92;;;;;;;5.10;68.53;95118.16;5031005;28;20216;-60
2022/01/08 02:19:37;;;;;;;6.90;4.25;;;;;;;5.51;67.11;95114.88;5030188;28;20714;-59
2022/01/08 02:22:05;;;;;;;6.82;4.03;;;;;;;5.53;66.70;95101.69;5030819;28;20200;-60
2022/01/08 02:24:32;;;;;;;6.38;4.25;;;;;;;5.05;67.71;95097.19;5030409;28;20669;-59
2022/01/08 02:26:59;;;;;;;5.22;3.80;;;;;;;5.21;67.61;95092.44;5031079;28;20209;-63
2022/01/08 02:29:26;;;;;;;4.70;3.70;;;;;;;5.18;67.34;95069.50;5030353;28;20182;-60
2022/01/08 02:32:04;;;;;;;5.05;4.03;;;;;;;5.34;66.70;95082.72;5030381;28;20201;-60
2022/01/08 02:34:32;;;;;;;5.45;4.03;;;;;;;5.28;66.86;95080.16;5030239;28;20264;-62
2022/01/08 02:37:00;;;;;;;5.18;3.70;;;;;;;5.44;66.59;95071.81;5031047;28;20197;-60
2022/01/08 02:39:27;;;;;;;6.55;4.20;;;;;;;5.23;67.08;95059.25;5030155;28;20732;-60
2022/01/08 02:41:58;;;;;;;5.55;4.57;;;;;;;5.59;66.37;95064.38;5030202;28;20197;-60
2022/01/08 02:44:27;;;;;;;6.15;4.63;;;;;;;5.46;66.64;95067.16;5030400;28;20224;-61
2022/01/08 02:46:54;;;;;;;5.20;4.15;;;;;;;4.99;67.49;95040.97;5030768;28;20225;-61
2022/01/08 02:49:24;;;;;;;5.88;3.83;;;;;;;5.32;67.17;95050.16;5030457;28;20201;-60
2022/01/08 02:51:52;;;;;;;5.47;3.88;;;;;;;4.81;68.23;95030.56;5030769;28;20205;-60
2022/01/08 02:54:19;;;;;;;5.93;3.90;;;;;;;5.11;68.28;95044.41;5030317;28;20216;-60
2022/01/08 02:56:48;;;;;;;6.03;4.32;;;;;;;5.48;67.07;95032.16;5030698;28;20204;-60
2022/01/08 02:59:15;;;;;;;4.97;3.92;;;;;;;5.51;66.66;95042.09;5029967;28;20193;-60
2022/01/08 03:01:42;;;;;;;4.45;3.95;;;;;;;5.34;66.62;95042.94;5030212;28;20793;-60
2022/01/08 03:04:10;;;;;;;5.13;4.00;;;;;;;5.15;67.21;95045.56;5029685;28;20200;-60
2022/01/08 03:06:37;;;;;;;4.93;4.22;;;;;;;5.16;67.36;95046.34;5030101;28;20217;-60
2022/01/08 03:09:04;;;;;;;4.72;3.58;;;;;;;4.93;68.49;95043.59;5030068;28;20189;-61
2022/01/08 03:11:32;;;;;;;5.05;3.88;;;;;;;5.01;68.08;95041.53;5030301;28;20205;-59
2022/01/08 03:13:59;;;;;;;5.35;4.10;;;;;;;5.31;67.52;95040.78;5029936;28;20240;-60
2022/01/08 03:16:26;;;;;;;4.90;3.63;;;;;;;5.09;67.09;95033.44;5031208;28;20197;-60
2022/01/08 03:18:53;;;;;;;4.18;3.50;;;;;;;4.86;68.69;95038.50;5030730;28;20668;-61
2022/01/08 03:21:22;;;;;;;5.57;3.88;;;;;;;4.87;68.91;95036.72;5031061;28;20627;-59
2022/01/08 03:23:56;;;;;;;5.28;4.13;;;;;;;4.81;69.05;95040.97;5031345;28;20189;-60
2022/01/08 03:26:26;;;;;;;4.70;3.97;;;;;;;4.84;69.19;95043.13;5031636;28;20227;-60
2022/01/08 03:28:54;;;;;;;5.40;3.88;;;;;;;4.38;69.55;95047.94;5030121;28;20181;-60
2022/01/08 03:31:22;;;;;;;5.50;4.22;;;;;;;4.68;70.09;95041.09;5030713;28;20225;-60
2022/01/08 03:33:50;;;;;;;5.32;3.97;;;;;;;4.91;69.21;95036.03;5030060;28;20208;-59
2022/01/08 03:36:19;;;;;;;5.07;4.07;;;;;;;5.21;68.09;95045.69;5029954;28;20224;-61
2022/01/08 03:38:46;;;;;;;4.80;3.60;;;;;;;5.11;68.10;95044.41;5029503;28;20212;-60
2022/01/08 03:41:13;;;;;;;5.13;3.88;;;;;;;4.90;68.72;95050.03;5029449;28;20197;-60
2022/01/08 03:43:40;;;;;;;6.78;4.10;;;;;;;5.36;67.89;95052.09;5029323;28;20649;-60
2022/01/08 03:46:07;;;;;;;6.53;4.18;;;;;;;5.20;67.75;95049.31;5029628;28;20317;-60
2022/01/08 03:51:11;;;;;;;5.18;3.88;;;;;;;5.99;66.52;95042.03;5029394;28;20201;-60
2022/01/08 03:53:38;;;;;;;7.05;4.10;;;;;;;5.66;66.28;95023.50;5028782;28;20201;-60
2022/01/08 03:56:06;;;;;;;5.65;4.07;;;;;;;5.03;68.70;95018.75;5028740;28;20203;-60
2022/01/08 03:58:33;;;;;;;4.88;3.92;;;;;;;4.73;69.55;95022.25;5028311;28;20755;-60
2022/01/08 04:01:00;;;;;;;4.25;3.45;;;;;;;4.62;69.83;94969.28;5029506;28;20209;-59
2022/01/08 04:03:28;;;;;;;5.35;4.05;;;;;;;5.08;68.99;95005.88;5028442;28;20279;-60
2022/01/08 04:05:55;;;;;;;5.60;3.63;;;;;;;4.81;69.05;95007.22;5028508;28;20822;-60
2022/01/08 04:08:22;;;;;;;4.88;3.75;;;;;;;5.14;68.88;95009.41;5028601;28;20269;-61
2022/01/08 04:10:49;;;;;;;4.60;3.58;;;;;;;4.91;69.69;95007.47;5029435;28;20212;-60
2022/01/08 04:13:23;;;;;;;5.18;3.63;;;;;;;5.45;68.31;95006.63;5028762;28;20212;-60
2022/01/08 04:15:56;;;;;;;5.28;3.38;;;;;;;5.22;68.59;95008.31;5028909;28;20204;-61
2022/01/08 04:18:23;;;;;;;4.53;2.95;;;;;;;4.77;69.57;95003.47;5028408;28;20612;-60
2022/01/08 04:23:53;;;;;;;4.10;3.30;;;;;;;4.79;69.70;95006.63;5025051;28;20201;-60
2022/01/08 04:26:22;;;;;;;3.30;2.60;;;;;;;5.18;69.05;95006.16;5027486;28;20241;-60
2022/01/08 04:28:55;;;;;;;4.78;3.20;;;;;;;5.43;68.09;95005.25;5028416;28;20189;-60
2022/01/08 04:31:23;;;;;;;4.18;3.30;;;;;;;5.52;67.58;95006.50;5029192;28;20205;-59
2022/01/08 04:33:50;;;;;;;3.58;3.08;;;;;;;5.66;67.18;94998.31;5028516;28;20262;-60
2022/01/08 04:36:18;;;;;;;3.70;3.20;;;;;;;5.74;66.96;95005.00;5028733;28;20203;-61
2022/01/08 04:38:45;;;;;;;3.55;2.90;;;;;;;5.58;67.25;95005.63;5027993;28;20695;-62
2022/01/08 04:41:13;;;;;;;6.78;3.20;;;;;;;5.37;67.83;94999.13;5028498;28;20193;-60
2022/01/08 04:43:43;;;;;;;4.63;3.17;;;;;;;5.47;67.44;95006.38;5028037;28;20205;-60
2022/01/08 04:46:11;;;;;;;4.68;3.03;;;;;;;5.26;68.29;95001.66;5028005;28;20219;-60
2022/01/08 04:48:38;;;;;;;3.63;2.92;;;;;;;5.30;68.22;94998.41;5027430;28;20200;-61
2022/01/08 04:51:05;;;;;;;3.67;2.90;;;;;;;5.53;67.74;95010.72;5028099;28;20757;-61
2022/01/08 04:53:32;;;;;;;3.45;2.85;;;;;;;5.33;68.15;95005.00;5027933;28;20286;-60
2022/01/08 04:55:59;;;;;;;4.05;2.70;;;;;;;5.95;66.54;95001.91;5028296;28;20201;-60
2022/01/08 04:58:28;;;;;;;3.78;3.08;;;;;;;5.59;67.30;95009.81;5027767;28;20665;-60
2022/01/08 05:00:55;;;;;;;4.03;2.70;;;;;;;5.91;66.46;95011.19;5028111;28;20213;-60
2022/01/08 05:03:22;;;;;;;3.58;2.60;;;;;;;5.42;67.58;94991.44;5027979;28;20191;-61
2022/01/08 05:05:49;;;;;;;5.28;2.70;;;;;;;5.59;67.45;94996.81;5027969;28;20320;-60
2022/01/08 05:08:16;;;;;;;3.35;2.67;;;;;;;5.22;67.99;94995.34;5027751;28;20733;-59
2022/01/08 05:10:43;;;;;;;4.72;2.97;;;;;;;5.44;67.63;94999.81;5028037;28;20205;-61
2022/01/08 05:13:10;;;;;;;4.03;2.60;;;;;;;5.58;67.32;95005.63;5027706;28;20200;-61
2022/01/08 05:15:37;;;;;;;3.83;2.60;;;;;;;5.38;68.14;94999.91;5027806;28;20232;-60
2022/01/08 05:18:06;;;;;;;4.60;2.70;;;;;;;5.19;68.69;95009.53;5027835;28;20274;-60
2022/01/08 05:20:36;;;;;;;4.65;2.33;;;;;;;5.42;68.47;94999.25;5028307;28;20196;-60
2022/01/08 05:23:04;;;;;;;4.35;2.50;;;;;;;5.65;66.98;95011.53;5027919;28;20245;-60
2022/01/08 05:25:31;;;;;;;3.47;2.50;;;;;;;5.34;67.63;95004.75;5027538;28;20606;-60
2022/01/08 05:27:58;;;;;;;2.80;2.00;;;;;;;5.46;67.46;95004.78;5027431;28;20181;-61
2022/01/08 05:30:27;;;;;;;4.05;2.40;;;;;;;5.75;66.66;94983.97;5027680;28;20300;-60
2022/01/08 05:32:55;;;;;;;4.30;2.45;;;;;;;5.89;65.98;94992.41;5027536;28;20255;-60
2022/01/08 05:35:23;;;;;;;4.15;2.90;;;;;;;5.93;66.46;95003.94;5028048;28;20263;-63
2022/01/08 05:37:50;;;;;;;5.35;2.50;;;;;;;5.90;66.07;94999.19;5031908;28;20684;-59
2022/01/08 05:40:17;;;;;;;4.00;2.30;;;;;;;5.58;67.11;94995.25;5032015;28;20205;-60
2022/01/08 05:42:44;;;;;;;5.55;2.45;;;;;;;5.83;66.58;94985.50;5030674;28;20643;-60
2022/01/08 05:45:12;;;;;;;8.20;4.43;;;;;;;5.65;66.44;94985.53;5031717;28;20602;-60
2022/01/08 05:47:39;;;;;;;7.22;3.42;;;;;;;5.82;66.57;94986.50;5031833;28;20739;-60
2022/01/08 05:50:07;;;;;;;4.07;2.75;;;;;;;6.18;65.55;94988.94;5030362;28;20221;-60
2022/01/08 05:52:34;;;;;;;4.03;2.95;;;;;;;6.36;64.68;94978.41;5030561;28;20205;-61
2022/01/08 05:55:02;;;;;;;6.05;2.58;;;;;;;6.87;63.47;94991.47;5030651;28;20207;-60
2022/01/08 05:57:29;;;;;;;5.07;2.90;;;;;;;6.39;64.34;94988.34;5030418;28;20198;-61
2022/01/08 05:59:56;;;;;;;3.85;2.33;;;;;;;6.04;65.59;94995.34;5029687;28;20205;-62
2022/01/08 06:02:23;;;;;;;4.47;2.50;;;;;;;6.16;65.50;94990.97;5031146;28;20201;-60
2022/01/08 06:04:51;;;;;;;4.50;2.45;;;;;;;6.69;63.76;94994.25;5030432;28;20648;-59
2022/01/08 06:07:18;;;;;;;3.30;2.42;;;;;;;5.74;66.17;94994.59;5030977;28;20232;-60
2022/01/08 06:09:45;;;;;;;3.45;2.45;;;;;;;6.40;64.93;94992.56;5031206;28;20205;-60
2022/01/08 06:12:12;;;;;;;3.10;2.40;;;;;;;6.34;64.85;94990.84;5031456;28;20193;-60
2022/01/08 06:14:39;;;;;;;3.70;2.40;;;;;;;6.42;64.40;94987.13;5030291;28;20483;-59
2022/01/08 06:17:06;;;;;;;4.40;2.70;;;;;;;6.33;65.03;94994.50;5031144;28;20593;-60
2022/01/08 06:19:33;;;;;;;4.22;2.47;;;;;;;6.71;64.04;94981.78;5030462;28;20751;-61
2022/01/08 06:22:01;;;;;;;4.20;2.60;;;;;;;6.55;64.17;94992.09;5030776;28;20192;-61
2022/01/08 06:24:28;;;;;;;5.40;2.78;;;;;;;6.32;64.86;94987.69;5031021;28;20733;-61
2022/01/08 06:26:55;;;;;;;4.88;2.47;;;;;;;6.45;64.76;94979.66;5030909;28;20251;-61
2022/01/08 06:29:22;;;;;;;3.28;2.20;;;;;;;6.24;66.15;94988.00;5030648;28;20205;-60
2022/01/08 06:31:49;;;;;;;3.15;2.00;;;;;;;5.79;66.38;94981.72;5062837;28;20536;-59
2022/01/08 06:34:16;;;;;;;4.30;2.40;;;;;;;5.63;67.06;94992.75;5030052;28;20211;-61
2022/01/08 06:36:43;;;;;;;2.85;2.10;;;;;;;5.64;67.65;94991.75;5030291;28;20197;-60
2022/01/08 06:39:10;;;;;;;3.17;2.67;;;;;;;5.67;67.30;94989.50;5030377;28;20193;-61
2022/01/08 06:41:37;;;;;;;4.45;2.13;;;;;;;5.81;67.18;94984.88;5030894;28;20209;-60
2022/01/08 06:44:04;;;;;;;3.67;2.10;;;;;;;6.48;65.06;94981.78;5030437;28;20185;-60
2022/01/08 06:46:31;;;;;;;2.70;1.85;;;;;;;6.55;64.04;94982.47;5029890;28;20209;-60
2022/01/08 06:48:58;;;;;;;3.75;1.80;;;;;;;6.38;64.46;94986.00;5030487;28;20209;-62
2022/01/08 06:51:25;;;;;;;4.30;2.00;;;;;;;6.18;65.30;94959.50;5030248;28;20205;-60
2022/01/08 06:53:53;;;;;;;2.78;1.92;;;;;;;6.67;64.50;94970.25;5030036;28;20756;-60
2022/01/08 06:56:20;;;;;;;3.55;2.42;;;;;;;6.38;65.10;94955.56;5029707;28;20688;-59
2022/01/08 06:58:47;;;;;;;4.35;2.50;;;;;;;6.60;64.86;94961.75;5030000;28;20205;-62
2022/01/08 07:01:14;;;;;;;6.78;3.38;;;;;;;6.86;64.30;94969.03;5030653;28;20189;-61
2022/01/08 07:03:41;;;;;;;5.95;2.97;;;;;;;6.76;64.17;94979.28;5030235;28;20573;-59
2022/01/08 07:06:08;;;;;;;5.82;2.92;;;;;;;6.77;63.68;94970.44;5029982;28;20228;-61
2022/01/08 07:08:35;;;;;;;4.18;2.80;;;;;;;6.78;64.07;94972.03;5029098;28;20328;-63
2022/01/08 07:11:02;;;;;;;8.65;3.20;;;;;;;6.92;63.43;94970.75;5030474;28;20201;-61
2022/01/08 07:13:29;;;;;;;3.85;2.17;;;;;;;6.84;63.34;94975.53;5029482;28;20209;-61
2022/01/08 07:15:55;;;;;;;4.72;2.80;;;;;;;6.42;64.18;94977.50;5029988;28;20209;-61
2022/01/08 07:18:22;;;;;;;4.97;3.08;;;;;;;6.46;64.30;94967.44;5029829;28;20201;-61
2022/01/08 07:20:49;;;;;;;6.55;2.95;;;;;;;6.45;65.33;94966.63;5029760;28;20200;-61
2022/01/08 07:23:16;;;;;;;4.63;3.35;;;;;;;6.38;65.64;94976.38;5030245;28;20197;-61
2022/01/08 07:25:43;;;;;;;7.00;3.60;;;;;;;6.62;65.19;94967.53;5030477;28;20622;-61
2022/01/08 07:28:10;;;;;;;4.23;2.93;;;;;;;6.78;64.22;94969.44;5029595;28;20225;-63
2022/01/08 07:30:36;;;;;;;4.47;2.90;;;;;;;6.94;63.84;94966.09;5029762;28;20450;-61
2022/01/08 07:33:03;;;;;;;3.97;2.50;;;;;;;6.77;64.06;94954.81;5029480;28;20213;-61
2022/01/08 07:35:30;;;;;;;3.15;2.30;;;;;;;6.89;64.00;94963.41;5029736;28;20478;-60
2022/01/08 07:37:57;;;;;;;4.13;2.45;;;;;;;6.78;64.32;94964.22;5029198;28;20205;-61
2022/01/08 07:40:24;;;;;;;7.85;3.15;;;;;;;6.73;64.03;94969.28;5029856;28;20287;-60
2022/01/08 07:42:51;;;;;;;4.68;3.13;;;;;;;7.07;62.78;94968.44;5029573;28;20262;-65
2022/01/08 07:45:19;;;;;;;4.38;3.05;;;;;;;7.12;62.37;94952.91;5030128;28;20200;-62
2022/01/08 07:47:48;;;;;;;4.53;2.57;;;;;;;6.89;63.58;94963.41;5030501;28;20240;-61
2022/01/08 07:50:15;;;;;;;2.72;2.05;;;;;;;6.73;63.90;94969.28;5030436;28;20479;-61
2022/01/08 07:52:44;;;;;;;4.35;2.00;;;;;;;6.87;63.30;94962.84;5029245;28;20243;-59
2022/01/08 07:55:12;;;;;;;2.25;1.73;;;;;;;7.21;62.34;94961.13;5029219;28;20186;-61
2022/01/08 07:57:39;;;;;;;3.95;2.75;;;;;;;7.12;62.83;94957.31;5028549;28;20212;-59
2022/01/08 08:00:07;;;;;;;4.55;2.50;;;;;;;7.16;62.80;94954.03;5028791;28;20258;-60
2022/01/08 08:02:37;;;;;;;4.00;2.10;;;;;;;6.99;62.98;94962.78;5028961;28;20193;-62
2022/01/08 08:05:05;;;;;;;3.53;2.23;;;;;;;6.78;63.22;94961.63;5029553;28;20648;-61
2022/01/08 08:07:37;;;;;;;3.05;1.98;;;;;;;6.92;63.57;94952.50;5028843;28;20499;-59
2022/01/08 08:10:11;;;;;;;3.30;1.92;;;;;;;7.08;63.83;94959.59;5060526;28;20288;-60
2022/01/08 08:12:41;;;;;;;4.63;2.70;;;;;;;7.19;63.90;94963.16;5028850;28;20212;-60
2022/01/08 08:15:12;;;;;;;3.90;2.50;;;;;;;7.19;63.55;94948.34;5028914;28;20657;-61
2022/01/08 08:17:39;;;;;;;11.30;2.75;;;;;;;7.43;62.80;94948.22;5028371;28;20447;-61
2022/01/08 08:20:07;;;;;;;3.35;2.38;;;;;;;6.30;64.71;94962.91;5029355;28;20201;-61
2022/01/08 08:22:34;;;;;;;4.38;2.42;;;;;;;6.52;64.80;94951.69;5028188;28;20208;-60
2022/01/08 08:25:02;;;;;;;5.97;2.58;;;;;;;7.02;64.00;94950.13;5029034;28;20863;-60
2022/01/08 08:27:29;;;;;;;2.40;1.90;;;;;;;7.14;63.85;94950.84;5028479;28;20774;-60
2022/01/08 08:29:56;;;;;;;3.25;2.22;;;;;;;6.97;63.74;94942.19;5028697;28;20205;-60
2022/01/08 08:32:23;;;;;;;5.72;2.40;;;;;;;6.69;63.99;94947.38;5028686;28;20201;-60
2022/01/08 08:34:51;;;;;;;3.22;2.17;;;;;;;7.29;63.35;94952.16;5028331;28;20203;-61
2022/01/08 08:37:18;;;;;;;4.03;2.53;;;;;;;7.21;63.68;94935.06;5028156;28;20220;-60
2022/01/08 08:39:45;;;;;;;4.80;2.63;;;;;;;7.46;63.47;94942.56;5027698;28;21005;-61
2022/01/08 08:42:13;;;;;;;4.30;2.53;;;;;;;7.46;62.81;94937.34;5028493;28;20542;-60
2022/01/08 08:44:40;;;;;;;4.85;2.95;;;;;;;7.73;62.03;94927.91;5027851;28;20622;-60
2022/01/08 08:47:08;;;;;;;5.22;2.95;;;;;;;7.75;62.43;94936.28;5027805;28;20244;-60
2022/01/08 08:49:38;;;;;;;4.03;2.23;;;;;;;7.59;62.44;94929.22;5027782;28;20236;-61
2022/01/08 08:52:05;;;;;;;3.08;1.70;;;;;;;7.31;62.64;94934.47;5028065;28;20560;-60
2022/01/08 08:54:32;;;;;;;2.87;1.97;;;;;;;7.14;63.56;94940.44;5027528;28;20983;-61
2022/01/08 08:57:00;;;;;;;6.18;2.60;;;;;;;7.05;64.02;94939.22;5027355;28;20876;-59
2022/01/08 08:59:27;;;;;;;4.97;2.80;;;;;;;6.89;64.18;94923.53;5027750;28;20286;-60
2022/01/08 09:01:55;;;;;;;5.97;3.10;;;;;;;6.97;64.30;94931.75;5027703;28;20205;-61
2022/01/08 09:04:23;;;;;;;5.70;3.83;;;;;;;7.14;63.37;94935.22;5027229;28;20479;-60
2022/01/08 09:06:50;;;;;;;4.88;2.40;;;;;;;7.14;63.45;94924.78;5025333;28;20534;-60
2022/01/08 09:09:17;;;;;;;4.07;3.13;;;;;;;7.52;62.94;94913.72;5026395;28;20232;-60
2022/01/08 09:11:44;;;;;;;7.20;3.97;;;;;;;7.43;62.32;94914.34;5026505;28;20447;-61
2022/01/08 09:14:10;;;;;;;8.98;4.63;;;;;;;7.64;62.13;94913.66;5025607;28;20617;-61
2022/01/08 09:16:43;;;;;;;6.63;4.65;;;;;;;7.57;62.62;94900.00;5026719;28;20213;-61
2022/01/08 09:19:09;;;;;;;5.77;3.60;;;;;;;7.47;64.04;94894.59;5025919;28;20280;-64
2022/01/08 09:21:37;;;;;;;8.50;3.00;;;;;;;7.58;64.50;94896.34;5027915;28;20514;-63
2022/01/08 09:24:04;;;;;;;7.40;3.77;;;;;;;7.85;63.10;94900.69;5027027;28;20518;-64
2022/01/08 09:26:32;;;;;;;3.53;2.63;;;;;;;8.06;62.77;94905.19;5026566;28;20447;-66
2022/01/08 09:28:59;;;;;;;6.13;3.03;;;;;;;8.23;61.73;94892.91;5025195;28;20873;-60
2022/01/08 09:31:26;;;;;;;5.78;3.15;;;;;;;8.30;60.10;94895.38;5019370;28;20887;-60
2022/01/08 09:33:53;;;;;;;5.87;3.60;;;;;;;8.08;60.60;94887.47;5011435;28;20296;-60
2022/01/08 09:36:20;;;;;;;31.00;22.87;;;;;;;8.21;61.68;94881.13;5012707;28;20610;-59
2022/01/08 09:38:47;;;;;;;47.08;31.77;;;;;;;7.96;61.84;94872.94;5007383;28;20979;-59
2022/01/08 09:41:14;;;;;;;51.55;36.45;;;;;;;7.76;62.47;94881.25;5008423;28;20198;-60
2022/01/08 09:43:41;;;;;;;8.05;4.05;;;;;;;8.15;61.34;94874.25;5007810;28;20224;-61
2022/01/08 09:46:08;;;;;;;8.67;4.17;;;;;;;8.28;61.46;94868.72;5010664;28;20217;-59
2022/01/08 09:48:36;;;;;;;5.67;3.00;;;;;;;8.20;59.96;94861.28;5007004;28;21018;-60
2022/01/08 09:51:03;;;;;;;6.73;5.33;;;;;;;8.09;60.98;94870.00;5007074;28;20441;-62
2022/01/08 09:53:30;;;;;;;12.57;8.43;;;;;;;8.09;60.62;94872.59;5007195;28;20456;-61
2022/01/08 09:55:57;;;;;;;31.23;21.47;;;;;;;8.00;60.57;94855.78;5006798;28;20445;-59
2022/01/08 09:58:29;;;;;;;7.53;3.80;;;;;;;8.10;61.17;94855.94;5012456;28;20551;-60
2022/01/08 10:00:56;;;;;;;4.00;2.27;;;;;;;8.03;60.67;94857.91;5008374;28;20479;-60
2022/01/08 10:03:26;;;;;;;2.60;1.80;;;;;;;8.50;59.88;94848.66;5006986;28;20879;-63
2022/01/08 10:05:56;;;;;;;2.75;1.95;;;;;;;8.38;59.63;94853.19;5007526;28;20444;-61
2022/01/08 10:08:43;;;;;;;6.40;1.88;;;;;;;7.98;60.56;94842.97;5006713;28;20305;-60
2022/01/08 10:11:12;;;;;;;4.33;2.17;;;;;;;8.09;60.44;94849.13;5007167;28;20252;-60
2022/01/08 10:13:41;;;;;;;3.90;2.00;;;;;;;7.87;61.70;94835.25;5006765;28;20523;-63
2022/01/08 10:19:16;;;;;;;162.53;120.80;;;;;;;8.53;60.21;94835.09;5007124;28;20452;-60
2022/01/08 10:21:44;;;;;;;3.13;2.57;;;;;;;8.44;59.46;94826.13;5007949;28;20444;-61
2022/01/08 10:24:11;;;;;;;3.93;2.77;;;;;;;8.50;59.06;94832.19;5010612;28;20439;-60
2022/01/08 10:26:41;;;;;;;4.27;2.63;;;;;;;8.24;60.03;94820.66;5010666;28;20452;-60
2022/01/08 10:29:13;;;;;;;3.80;2.60;;;;;;;8.61;58.38;94816.38;5010015;28;20451;-60
2022/01/08 10:31:51;;;;;;;3.77;2.50;;;;;;;8.60;58.76;94820.03;5010554;28;20472;-60
2022/01/08 10:34:20;;;;;;;5.67;2.97;;;;;;;8.58;58.73;94819.47;5010294;28;20460;-60
2022/01/08 10:36:57;;;;;;;4.93;3.13;;;;;;;8.65;58.63;94812.25;5010231;28;20449;-60
2022/01/08 10:39:28;;;;;;;4.47;3.40;;;;;;;8.40;58.59;94806.75;5010347;28;20444;-60
2022/01/08 10:41:57;;;;;;;5.10;3.70;;;;;;;8.62;58.60;94802.28;5010831;28;20453;-60
2022/01/08 10:44:25;;;;;;;3.63;2.78;;;;;;;8.73;58.41;94790.91;5010590;28;20449;-61
2022/01/08 10:47:16;;;;;;;8.43;3.67;;;;;;;8.65;58.49;94801.03;5010308;28;20775;-59
2022/01/08 10:49:47;;;;;;;5.37;3.27;;;;;;;8.86;58.17;94792.34;5010220;28;20823;-60
2022/01/08 10:52:20;;;;;;;13.05;8.40;;;;;;;9.18;58.77;94788.72;5010552;28;20460;-60
2022/01/08 10:54:53;;;;;;;102.83;78.77;;;;;;;9.31;57.55;94782.28;5010067;28;20288;-59
2022/01/08 10:57:20;;;;;;;6.47;5.30;;;;;;;9.18;56.40;94772.25;5010659;28;20490;-60
2022/01/08 10:59:55;;;;;;;6.17;3.53;;;;;;;9.43;56.33;94779.50;5010043;28;20433;-62
2022/01/08 11:02:26;;;;;;;6.27;3.90;;;;;;;9.47;56.47;94780.59;5010421;28;20526;-61
2022/01/08 11:04:54;;;;;;;4.07;3.20;;;;;;;9.29;56.39;94780.97;5009853;28;20451;-61
2022/01/08 11:07:30;;;;;;;7.73;2.87;;;;;;;8.01;59.40;94784.31;5013402;28;20498;-61
2022/01/08 11:10:04;;;;;;;3.53;2.73;;;;;;;8.26;59.73;94781.25;5028944;28;20440;-63
2022/01/08 11:12:39;;;;;;;5.20;3.10;;;;;;;7.54;61.87;94780.50;5024858;28;20891;-66
2022/01/08 11:15:25;;;;;;;4.63;3.23;;;;;;;7.93;61.75;94767.25;5024466;28;20483;-64
2022/01/08 11:17:57;;;;;;;5.17;3.83;;;;;;;8.16;59.68;94771.44;5023321;28;20444;-60
2022/01/08 11:20:45;;;;;;;5.68;4.10;;;;;;;8.50;60.47;94765.09;5024714;28;20451;-61
2022/01/08 11:23:14;;;;;;;4.43;3.20;;;;;;;8.71;58.44;94758.22;5027096;28;20582;-61
2022/01/08 11:25:46;;;;;;;17.07;12.13;;;;;;;8.64;59.29;94750.59;5027675;28;21189;-62
2022/01/08 11:28:16;;;;;;;72.27;48.47;;;;;;;9.00;58.48;94757.72;5027698;28;20484;-64
2022/01/08 11:30:58;;;;;;;5.40;3.30;;;;;;;8.86;58.49;94761.78;5025893;28;20893;-61
2022/01/08 11:33:29;;;;;;;5.17;3.17;;;;;;;8.74;58.17;94758.53;5024600;28;20531;-61
2022/01/08 11:35:57;;;;;;;4.03;2.50;;;;;;;8.62;58.60;94755.28;5027524;28;20975;-60
2022/01/08 11:38:27;;;;;;;4.20;2.63;;;;;;;8.53;59.18;94759.38;5027128;28;20440;-62
2022/01/08 11:40:56;;;;;;;4.90;2.77;;;;;;;8.32;59.56;94759.41;5027393;28;20571;-63
2022/01/08 11:43:26;;;;;;;3.30;2.83;;;;;;;8.29;59.84;94758.06;5021769;28;20964;-62
2022/01/08 11:45:59;;;;;;;4.17;3.13;;;;;;;8.24;59.51;94752.78;5025973;28;20451;-60
2022/01/08 11:48:34;;;;;;;82.80;61.50;;;;;;;8.29;59.94;94750.22;5024391;28;20498;-61
2022/01/08 11:51:03;;;;;;;5.33;4.67;;;;;;;8.30;59.77;94746.59;5027271;28;20551;-60
2022/01/08 11:53:32;;;;;;;5.83;4.27;;;;;;;7.97;60.58;94736.25;5025409;28;20463;-60
2022/01/08 11:56:04;;;;;;;13.13;9.90;;;;;;;8.06;60.54;94735.56;5017875;28;20460;-61
2022/01/08 11:58:36;;;;;;;9.57;5.07;;;;;;;8.39;59.80;94726.84;5026282;28;20639;-63
2022/01/08 12:01:06;;;;;;;11.40;4.53;;;;;;;8.24;59.86;94726.69;5025721;28;20816;-64
2022/01/08 12:03:49;;;;;;;5.57;4.95;;;;;;;7.95;60.38;94730.50;4992513;28;20444;-62
2022/01/08 12:09:07;;;;;;;9.53;4.90;;;;;;;8.85;58.67;94734.06;5005833;28;20500;-60
2022/01/08 12:11:46;;;;;;;6.97;5.33;;;;;;;8.45;59.19;94725.84;4991041;28;20448;-61
2022/01/08 12:14:22;;;;;;;6.77;4.90;;;;;;;7.40;61.89;94735.75;5006436;28;20480;-61